This is the latest recevied weather packets stored in our database for station/object N2WH. If no packets are shown the sender has not sent any weather packets the latest 1 day(s).
| Time | Temp. | Humidity | Pressure | Rain* | Wind** | Luminosity | Snow |
|---|---|---|---|---|---|---|---|
| 1778088760 | 16.11° C | 96% | 1008.9 hPa | 0 mm | - | 173 W/m² | - |
| 1778087246 | 16.11° C | 95% | 1008.6 hPa | 0 mm | - | 131 W/m² | - |
| 1778085123 | 16.67° C | 94% | 1009.4 hPa | 1.78 mm | - | 106 W/m² | - |
| 1778084517 | 16.67° C | 93% | 1009.8 hPa | 3.05 mm | - | 62 W/m² | - |
| 1778084214 | 16.67° C | 92% | 1009.8 hPa | 1.27 mm | - | 57 W/m² | - |
| 1778083004 | 17.22° C | 89% | 1010.3 hPa | 0 mm | - | 46 W/m² | - |
| 1778082700 | 17.22° C | 88% | 1010.7 hPa | 0 mm | - | 49 W/m² | - |
| 1778080957 | 17.78° C | 83% | 1010.1 hPa | 0 mm | - | 104 W/m² | - |
| 1778080048 | 18.89° C | 77% | 1010.4 hPa | 0 mm | - | 57 W/m² | - |
| 1778079139 | 18.89° C | 74% | 1010.5 hPa | 0 mm | - | 90 W/m² | - |
| 1778078231 | 18.89° C | 74% | 1010.5 hPa | 0 mm | - | 67 W/m² | - |
| 1778077627 | 18.89° C | 74% | 1010.4 hPa | 0 mm | - | 129 W/m² | - |
| 1778076720 | 18.89° C | 74% | 1010.3 hPa | 0 mm | - | 94 W/m² | - |
| 1778075508 | 18.89° C | 74% | 1010.5 hPa | 0 mm | - | 119 W/m² | - |
| 1778075204 | 18.89° C | 75% | 1010.5 hPa | 0 mm | - | 105 W/m² | - |
| 1778074900 | 18.89° C | 74% | 1010.6 hPa | 0 mm | - | 104 W/m² | - |
| 1778073992 | 18.89° C | 74% | 1010.7 hPa | 0 mm | - | 104 W/m² | - |
| 1778073386 | 18.89° C | 75% | 1010.3 hPa | 0 mm | - | 176 W/m² | - |
| 1778071872 | 18.33° C | 78% | 1010.3 hPa | 0 mm | - | 82 W/m² | - |
| 1778069149 | 17.78° C | 80% | 1010.5 hPa | 0 mm | - | 55 W/m² | - |
| 1778068846 | 17.78° C | 80% | 1010.8 hPa | 0 mm | - | 45 W/m² | - |
| 1778068544 | 17.78° C | 80% | 1010.4 hPa | 0 mm | - | 54 W/m² | - |
| 1778066426 | 17.78° C | 80% | 1010.7 hPa | 0 mm | - | 52 W/m² | - |
| 1778066124 | 17.78° C | 80% | 1010.5 hPa | 0 mm | - | 46 W/m² | - |
| 1778065821 | 17.78° C | 80% | 1010.6 hPa | 0 mm | - | 61 W/m² | - |
* Rain latest hour (hover to see other rain measurements)
** Current wind speed in m/s (hover to see current wind gust speed)